sensor_id;sensor_type;location;lat;lon;timestamp;P1;durP1;ratioP1;P2;durP2;ratioP2
30571;SDS011;17348;50.948;10.696;2022-09-14T00:01:22;7.53;;;3.10;;
30571;SDS011;17348;50.948;10.696;2022-09-14T00:04:27;5.82;;;2.53;;
30571;SDS011;17348;50.948;10.696;2022-09-14T00:07:29;5.47;;;2.50;;
30571;SDS011;17348;50.948;10.696;2022-09-14T00:10:31;3.03;;;2.35;;
30571;SDS011;17348;50.948;10.696;2022-09-14T00:13:34;3.92;;;2.38;;
30571;SDS011;17348;50.948;10.696;2022-09-14T00:16:39;5.20;;;2.58;;
30571;SDS011;17348;50.948;10.696;2022-09-14T00:19:42;6.65;;;2.70;;
30571;SDS011;17348;50.948;10.696;2022-09-14T00:22:45;6.82;;;3.28;;
30571;SDS011;17348;50.948;10.696;2022-09-14T00:25:47;4.30;;;2.55;;
30571;SDS011;17348;50.948;10.696;2022-09-14T00:28:50;6.15;;;2.60;;
30571;SDS011;17348;50.948;10.696;2022-09-14T00:31:55;6.15;;;3.05;;
30571;SDS011;17348;50.948;10.696;2022-09-14T00:34:58;5.88;;;2.80;;
30571;SDS011;17348;50.948;10.696;2022-09-14T00:38:00;5.10;;;2.80;;
30571;SDS011;17348;50.948;10.696;2022-09-14T00:41:03;5.72;;;2.70;;
30571;SDS011;17348;50.948;10.696;2022-09-14T00:44:53;7.18;;;3.35;;
30571;SDS011;17348;50.948;10.696;2022-09-14T00:47:50;8.73;;;3.05;;
30571;SDS011;17348;50.948;10.696;2022-09-14T00:50:54;4.03;;;2.92;;
30571;SDS011;17348;50.948;10.696;2022-09-14T00:53:57;7.25;;;3.20;;
30571;SDS011;17348;50.948;10.696;2022-09-14T00:57:01;4.35;;;2.45;;
30571;SDS011;17348;50.948;10.696;2022-09-14T01:00:05;4.72;;;2.78;;
30571;SDS011;17348;50.948;10.696;2022-09-14T01:03:10;7.43;;;2.78;;
30571;SDS011;17348;50.948;10.696;2022-09-14T01:06:15;5.32;;;2.28;;
30571;SDS011;17348;50.948;10.696;2022-09-14T01:09:24;6.78;;;3.03;;
30571;SDS011;17348;50.948;10.696;2022-09-14T01:12:34;8.95;;;2.88;;
30571;SDS011;17348;50.948;10.696;2022-09-14T01:15:46;4.28;;;2.30;;
30571;SDS011;17348;50.948;10.696;2022-09-14T01:18:57;4.32;;;2.92;;
30571;SDS011;17348;50.948;10.696;2022-09-14T01:22:04;3.80;;;2.42;;
30571;SDS011;17348;50.948;10.696;2022-09-14T01:25:16;10.43;;;3.15;;
30571;SDS011;17348;50.948;10.696;2022-09-14T01:28:30;5.78;;;2.75;;
30571;SDS011;17348;50.948;10.696;2022-09-14T01:31:41;8.38;;;3.22;;
30571;SDS011;17348;50.948;10.696;2022-09-14T01:34:51;4.63;;;2.88;;
30571;SDS011;17348;50.948;10.696;2022-09-14T01:37:59;5.95;;;3.42;;
30571;SDS011;17348;50.948;10.696;2022-09-14T01:41:05;4.13;;;3.00;;
30571;SDS011;17348;50.948;10.696;2022-09-14T01:44:13;5.25;;;3.13;;
30571;SDS011;17348;50.948;10.696;2022-09-14T01:47:18;7.03;;;2.80;;
30571;SDS011;17348;50.948;10.696;2022-09-14T01:50:26;6.85;;;3.35;;
30571;SDS011;17348;50.948;10.696;2022-09-14T01:53:34;5.07;;;2.90;;
30571;SDS011;17348;50.948;10.696;2022-09-14T01:56:41;6.15;;;3.15;;
30571;SDS011;17348;50.948;10.696;2022-09-14T01:59:51;5.15;;;3.25;;
30571;SDS011;17348;50.948;10.696;2022-09-14T02:02:57;5.50;;;2.92;;
30571;SDS011;17348;50.948;10.696;2022-09-14T02:06:06;6.68;;;3.33;;
30571;SDS011;17348;50.948;10.696;2022-09-14T02:09:14;4.15;;;2.80;;
30571;SDS011;17348;50.948;10.696;2022-09-14T02:12:18;6.95;;;2.95;;
30571;SDS011;17348;50.948;10.696;2022-09-14T02:15:23;4.30;;;2.70;;
30571;SDS011;17348;50.948;10.696;2022-09-14T02:18:26;4.38;;;3.03;;
30571;SDS011;17348;50.948;10.696;2022-09-14T02:21:29;4.40;;;2.85;;
30571;SDS011;17348;50.948;10.696;2022-09-14T02:24:33;5.75;;;3.28;;
30571;SDS011;17348;50.948;10.696;2022-09-14T02:27:35;8.65;;;3.78;;
30571;SDS011;17348;50.948;10.696;2022-09-14T02:30:41;4.10;;;3.00;;
30571;SDS011;17348;50.948;10.696;2022-09-14T02:33:50;4.88;;;3.30;;
30571;SDS011;17348;50.948;10.696;2022-09-14T02:37:00;6.05;;;3.65;;
30571;SDS011;17348;50.948;10.696;2022-09-14T02:40:09;5.70;;;3.60;;
30571;SDS011;17348;50.948;10.696;2022-09-14T02:43:19;6.15;;;3.33;;
30571;SDS011;17348;50.948;10.696;2022-09-14T02:46:31;6.45;;;3.65;;
30571;SDS011;17348;50.948;10.696;2022-09-14T02:49:38;6.00;;;3.00;;
30571;SDS011;17348;50.948;10.696;2022-09-14T02:52:47;8.27;;;4.03;;
30571;SDS011;17348;50.948;10.696;2022-09-14T02:55:54;6.20;;;3.65;;
30571;SDS011;17348;50.948;10.696;2022-09-14T02:59:00;5.55;;;3.33;;
30571;SDS011;17348;50.948;10.696;2022-09-14T03:02:04;6.40;;;3.80;;
30571;SDS011;17348;50.948;10.696;2022-09-14T03:05:06;7.32;;;3.58;;
30571;SDS011;17348;50.948;10.696;2022-09-14T03:08:09;9.15;;;4.13;;
30571;SDS011;17348;50.948;10.696;2022-09-14T03:11:12;8.45;;;4.18;;
30571;SDS011;17348;50.948;10.696;2022-09-14T03:14:14;6.43;;;3.83;;
30571;SDS011;17348;50.948;10.696;2022-09-14T03:17:18;7.57;;;3.83;;
30571;SDS011;17348;50.948;10.696;2022-09-14T03:20:25;6.18;;;3.75;;
30571;SDS011;17348;50.948;10.696;2022-09-14T03:23:29;7.57;;;4.28;;
30571;SDS011;17348;50.948;10.696;2022-09-14T03:26:31;8.43;;;3.92;;
30571;SDS011;17348;50.948;10.696;2022-09-14T03:29:36;13.30;;;4.53;;
30571;SDS011;17348;50.948;10.696;2022-09-14T03:32:39;8.00;;;4.38;;
30571;SDS011;17348;50.948;10.696;2022-09-14T03:35:42;14.02;;;4.80;;
30571;SDS011;17348;50.948;10.696;2022-09-14T03:38:44;7.03;;;4.53;;
30571;SDS011;17348;50.948;10.696;2022-09-14T03:41:48;6.63;;;3.63;;
30571;SDS011;17348;50.948;10.696;2022-09-14T03:44:50;9.30;;;4.95;;
30571;SDS011;17348;50.948;10.696;2022-09-14T03:47:54;6.03;;;4.10;;
30571;SDS011;17348;50.948;10.696;2022-09-14T03:50:58;6.38;;;3.60;;
30571;SDS011;17348;50.948;10.696;2022-09-14T03:54:00;7.00;;;3.97;;
30571;SDS011;17348;50.948;10.696;2022-09-14T03:57:04;8.68;;;4.35;;
30571;SDS011;17348;50.948;10.696;2022-09-14T04:00:07;6.28;;;3.70;;
30571;SDS011;17348;50.948;10.696;2022-09-14T04:03:12;8.43;;;3.75;;
30571;SDS011;17348;50.948;10.696;2022-09-14T04:06:14;11.93;;;4.32;;
30571;SDS011;17348;50.948;10.696;2022-09-14T04:09:18;7.40;;;4.15;;
30571;SDS011;17348;50.948;10.696;2022-09-14T04:12:20;7.40;;;4.10;;
30571;SDS011;17348;50.948;10.696;2022-09-14T04:15:22;12.75;;;4.40;;
30571;SDS011;17348;50.948;10.696;2022-09-14T04:18:26;12.18;;;4.53;;
30571;SDS011;17348;50.948;10.696;2022-09-14T04:21:29;8.88;;;3.90;;
30571;SDS011;17348;50.948;10.696;2022-09-14T04:24:31;5.63;;;3.92;;
30571;SDS011;17348;50.948;10.696;2022-09-14T04:27:33;11.98;;;3.50;;
30571;SDS011;17348;50.948;10.696;2022-09-14T04:30:36;5.20;;;3.60;;
30571;SDS011;17348;50.948;10.696;2022-09-14T04:33:41;5.30;;;3.45;;
30571;SDS011;17348;50.948;10.696;2022-09-14T04:36:43;7.65;;;3.85;;
30571;SDS011;17348;50.948;10.696;2022-09-14T04:39:46;7.82;;;3.65;;
30571;SDS011;17348;50.948;10.696;2022-09-14T04:42:48;7.03;;;3.88;;
30571;SDS011;17348;50.948;10.696;2022-09-14T04:45:50;7.82;;;4.10;;
30571;SDS011;17348;50.948;10.696;2022-09-14T04:48:54;6.40;;;4.32;;
30571;SDS011;17348;50.948;10.696;2022-09-14T04:51:57;8.68;;;4.82;;
30571;SDS011;17348;50.948;10.696;2022-09-14T04:54:59;7.13;;;4.72;;
30571;SDS011;17348;50.948;10.696;2022-09-14T04:58:01;8.75;;;4.30;;
30571;SDS011;17348;50.948;10.696;2022-09-14T05:01:05;11.15;;;5.05;;
30571;SDS011;17348;50.948;10.696;2022-09-14T05:04:10;6.78;;;4.68;;
30571;SDS011;17348;50.948;10.696;2022-09-14T05:07:12;7.25;;;4.60;;
30571;SDS011;17348;50.948;10.696;2022-09-14T05:10:15;8.00;;;5.70;;
30571;SDS011;17348;50.948;10.696;2022-09-14T05:13:18;7.85;;;4.85;;
30571;SDS011;17348;50.948;10.696;2022-09-14T05:16:21;8.73;;;5.10;;
30571;SDS011;17348;50.948;10.696;2022-09-14T05:19:26;8.35;;;4.43;;
30571;SDS011;17348;50.948;10.696;2022-09-14T05:22:28;12.38;;;5.32;;
30571;SDS011;17348;50.948;10.696;2022-09-14T05:25:30;9.77;;;5.75;;
30571;SDS011;17348;50.948;10.696;2022-09-14T05:28:33;10.63;;;5.18;;
30571;SDS011;17348;50.948;10.696;2022-09-14T05:31:36;8.68;;;5.88;;
30571;SDS011;17348;50.948;10.696;2022-09-14T05:34:40;9.20;;;5.68;;
30571;SDS011;17348;50.948;10.696;2022-09-14T05:37:42;9.07;;;5.18;;
30571;SDS011;17348;50.948;10.696;2022-09-14T05:40:45;9.88;;;6.10;;
30571;SDS011;17348;50.948;10.696;2022-09-14T05:43:47;9.20;;;5.70;;
30571;SDS011;17348;50.948;10.696;2022-09-14T05:46:49;10.68;;;6.35;;
30571;SDS011;17348;50.948;10.696;2022-09-14T05:49:53;10.82;;;6.03;;
30571;SDS011;17348;50.948;10.696;2022-09-14T05:52:55;11.30;;;6.70;;
30571;SDS011;17348;50.948;10.696;2022-09-14T05:55:58;14.93;;;6.85;;
30571;SDS011;17348;50.948;10.696;2022-09-14T05:59:00;13.00;;;5.78;;
30571;SDS011;17348;50.948;10.696;2022-09-14T06:02:03;11.25;;;5.78;;
30571;SDS011;17348;50.948;10.696;2022-09-14T06:05:07;12.93;;;6.60;;
30571;SDS011;17348;50.948;10.696;2022-09-14T06:08:09;8.80;;;6.15;;
30571;SDS011;17348;50.948;10.696;2022-09-14T06:11:12;12.63;;;6.75;;
30571;SDS011;17348;50.948;10.696;2022-09-14T06:14:16;11.52;;;7.43;;
30571;SDS011;17348;50.948;10.696;2022-09-14T06:17:20;19.30;;;12.63;;
30571;SDS011;17348;50.948;10.696;2022-09-14T06:20:23;20.70;;;9.88;;
30571;SDS011;17348;50.948;10.696;2022-09-14T06:23:26;15.52;;;9.48;;
30571;SDS011;17348;50.948;10.696;2022-09-14T06:26:28;13.40;;;7.50;;
30571;SDS011;17348;50.948;10.696;2022-09-14T06:29:30;12.23;;;7.38;;
30571;SDS011;17348;50.948;10.696;2022-09-14T06:32:33;10.40;;;6.80;;
30571;SDS011;17348;50.948;10.696;2022-09-14T06:35:36;15.55;;;7.85;;
30571;SDS011;17348;50.948;10.696;2022-09-14T06:38:40;17.25;;;7.88;;
30571;SDS011;17348;50.948;10.696;2022-09-14T06:41:43;12.43;;;6.63;;
30571;SDS011;17348;50.948;10.696;2022-09-14T06:44:46;18.70;;;7.47;;
30571;SDS011;17348;50.948;10.696;2022-09-14T06:47:50;16.92;;;7.35;;
30571;SDS011;17348;50.948;10.696;2022-09-14T06:50:54;10.02;;;6.43;;
30571;SDS011;17348;50.948;10.696;2022-09-14T06:53:56;14.18;;;7.63;;
30571;SDS011;17348;50.948;10.696;2022-09-14T06:57:00;12.90;;;7.20;;
30571;SDS011;17348;50.948;10.696;2022-09-14T07:00:02;10.85;;;6.97;;
30571;SDS011;17348;50.948;10.696;2022-09-14T07:03:05;15.75;;;6.47;;
30571;SDS011;17348;50.948;10.696;2022-09-14T07:06:09;10.27;;;6.32;;
30571;SDS011;17348;50.948;10.696;2022-09-14T07:09:13;10.70;;;5.63;;
30571;SDS011;17348;50.948;10.696;2022-09-14T07:12:17;7.40;;;5.07;;
30571;SDS011;17348;50.948;10.696;2022-09-14T07:15:19;9.07;;;5.32;;
30571;SDS011;17348;50.948;10.696;2022-09-14T07:18:21;7.45;;;4.70;;
30571;SDS011;17348;50.948;10.696;2022-09-14T07:21:30;9.10;;;4.80;;
30571;SDS011;17348;50.948;10.696;2022-09-14T07:24:33;8.00;;;4.68;;
30571;SDS011;17348;50.948;10.696;2022-09-14T07:27:35;5.20;;;3.67;;
30571;SDS011;17348;50.948;10.696;2022-09-14T07:30:38;5.53;;;3.97;;
30571;SDS011;17348;50.948;10.696;2022-09-14T07:33:41;6.60;;;4.72;;
30571;SDS011;17348;50.948;10.696;2022-09-14T07:36:45;8.57;;;5.03;;
30571;SDS011;17348;50.948;10.696;2022-09-14T07:39:47;12.48;;;5.10;;
30571;SDS011;17348;50.948;10.696;2022-09-14T07:42:50;10.10;;;5.35;;
30571;SDS011;17348;50.948;10.696;2022-09-14T07:45:52;9.90;;;6.05;;
30571;SDS011;17348;50.948;10.696;2022-09-14T07:48:55;12.18;;;5.63;;
30571;SDS011;17348;50.948;10.696;2022-09-14T07:51:59;9.23;;;6.18;;
30571;SDS011;17348;50.948;10.696;2022-09-14T07:55:02;15.23;;;6.55;;
30571;SDS011;17348;50.948;10.696;2022-09-14T07:58:05;10.35;;;6.95;;
30571;SDS011;17348;50.948;10.696;2022-09-14T08:01:08;11.43;;;6.82;;
30571;SDS011;17348;50.948;10.696;2022-09-14T08:04:12;8.48;;;5.30;;
30571;SDS011;17348;50.948;10.696;2022-09-14T08:07:15;7.03;;;5.05;;
30571;SDS011;17348;50.948;10.696;2022-09-14T08:10:18;9.55;;;5.82;;
30571;SDS011;17348;50.948;10.696;2022-09-14T08:13:20;13.25;;;7.38;;
30571;SDS011;17348;50.948;10.696;2022-09-14T08:16:22;11.35;;;7.38;;
30571;SDS011;17348;50.948;10.696;2022-09-14T08:19:26;14.75;;;7.82;;
30571;SDS011;17348;50.948;10.696;2022-09-14T08:22:29;12.77;;;7.35;;
30571;SDS011;17348;50.948;10.696;2022-09-14T08:25:32;12.38;;;7.95;;
30571;SDS011;17348;50.948;10.696;2022-09-14T08:28:34;12.93;;;7.95;;
30571;SDS011;17348;50.948;10.696;2022-09-14T08:31:38;13.70;;;7.88;;
30571;SDS011;17348;50.948;10.696;2022-09-14T08:34:40;13.15;;;7.70;;
30571;SDS011;17348;50.948;10.696;2022-09-14T08:37:44;7.85;;;5.68;;
30571;SDS011;17348;50.948;10.696;2022-09-14T08:40:46;8.93;;;5.00;;
30571;SDS011;17348;50.948;10.696;2022-09-14T08:43:51;8.07;;;4.45;;
30571;SDS011;17348;50.948;10.696;2022-09-14T08:46:56;6.22;;;4.75;;
30571;SDS011;17348;50.948;10.696;2022-09-14T08:50:03;6.15;;;4.55;;
30571;SDS011;17348;50.948;10.696;2022-09-14T08:53:14;7.25;;;3.97;;
30571;SDS011;17348;50.948;10.696;2022-09-14T08:56:17;6.75;;;4.25;;
30571;SDS011;17348;50.948;10.696;2022-09-14T08:59:32;4.00;;;3.58;;
30571;SDS011;17348;50.948;10.696;2022-09-14T09:02:51;6.05;;;3.65;;
30571;SDS011;17348;50.948;10.696;2022-09-14T09:06:12;5.85;;;4.10;;
30571;SDS011;17348;50.948;10.696;2022-09-14T09:09:20;6.80;;;4.30;;
30571;SDS011;17348;50.948;10.696;2022-09-14T09:12:34;10.02;;;4.78;;
30571;SDS011;17348;50.948;10.696;2022-09-14T09:15:40;8.63;;;5.35;;
30571;SDS011;17348;50.948;10.696;2022-09-14T09:18:47;8.32;;;5.53;;
30571;SDS011;17348;50.948;10.696;2022-09-14T09:21:52;7.05;;;4.93;;
30571;SDS011;17348;50.948;10.696;2022-09-14T09:24:56;9.10;;;5.63;;
30571;SDS011;17348;50.948;10.696;2022-09-14T09:28:01;8.75;;;5.50;;
30571;SDS011;17348;50.948;10.696;2022-09-14T09:31:12;10.45;;;6.22;;
30571;SDS011;17348;50.948;10.696;2022-09-14T09:34:24;7.20;;;5.43;;
30571;SDS011;17348;50.948;10.696;2022-09-14T09:37:28;12.57;;;6.40;;
30571;SDS011;17348;50.948;10.696;2022-09-14T09:40:39;10.50;;;5.95;;
30571;SDS011;17348;50.948;10.696;2022-09-14T09:43:57;9.20;;;6.22;;
30571;SDS011;17348;50.948;10.696;2022-09-14T09:47:01;10.15;;;5.82;;
30571;SDS011;17348;50.948;10.696;2022-09-14T09:50:04;10.30;;;5.95;;
30571;SDS011;17348;50.948;10.696;2022-09-14T09:53:17;6.78;;;4.60;;
30571;SDS011;17348;50.948;10.696;2022-09-14T09:56:24;7.82;;;5.53;;
30571;SDS011;17348;50.948;10.696;2022-09-14T09:59:30;8.43;;;6.10;;
30571;SDS011;17348;50.948;10.696;2022-09-14T10:02:35;8.00;;;5.30;;
30571;SDS011;17348;50.948;10.696;2022-09-14T10:05:37;7.25;;;5.47;;
30571;SDS011;17348;50.948;10.696;2022-09-14T10:08:41;6.22;;;4.28;;
30571;SDS011;17348;50.948;10.696;2022-09-14T10:11:45;7.68;;;4.47;;
30571;SDS011;17348;50.948;10.696;2022-09-14T10:14:48;7.43;;;5.15;;
30571;SDS011;17348;50.948;10.696;2022-09-14T10:18:15;6.07;;;5.13;;
30571;SDS011;17348;50.948;10.696;2022-09-14T10:21:18;9.00;;;5.53;;
30571;SDS011;17348;50.948;10.696;2022-09-14T10:24:21;9.80;;;5.90;;
30571;SDS011;17348;50.948;10.696;2022-09-14T10:27:33;7.72;;;5.40;;
30571;SDS011;17348;50.948;10.696;2022-09-14T10:30:40;14.75;;;5.85;;
30571;SDS011;17348;50.948;10.696;2022-09-14T10:33:50;9.60;;;5.82;;
30571;SDS011;17348;50.948;10.696;2022-09-14T10:36:55;6.88;;;4.90;;
30571;SDS011;17348;50.948;10.696;2022-09-14T10:40:11;11.52;;;6.20;;
30571;SDS011;17348;50.948;10.696;2022-09-14T10:43:19;10.68;;;6.65;;
30571;SDS011;17348;50.948;10.696;2022-09-14T10:46:28;10.32;;;6.50;;
30571;SDS011;17348;50.948;10.696;2022-09-14T10:49:37;8.43;;;6.57;;
30571;SDS011;17348;50.948;10.696;2022-09-14T10:52:49;10.57;;;5.63;;
30571;SDS011;17348;50.948;10.696;2022-09-14T10:56:00;7.07;;;5.32;;
30571;SDS011;17348;50.948;10.696;2022-09-14T10:59:15;10.25;;;5.45;;
30571;SDS011;17348;50.948;10.696;2022-09-14T11:02:30;7.97;;;5.28;;
30571;SDS011;17348;50.948;10.696;2022-09-14T11:05:49;8.13;;;5.60;;
30571;SDS011;17348;50.948;10.696;2022-09-14T11:09:05;10.27;;;6.47;;
30571;SDS011;17348;50.948;10.696;2022-09-14T11:12:17;8.48;;;5.75;;
30571;SDS011;17348;50.948;10.696;2022-09-14T11:15:28;7.37;;;5.83;;
30571;SDS011;17348;50.948;10.696;2022-09-14T11:18:36;10.45;;;4.88;;
30571;SDS011;17348;50.948;10.696;2022-09-14T11:21:51;6.10;;;4.63;;
30571;SDS011;17348;50.948;10.696;2022-09-14T11:24:58;8.93;;;5.22;;
30571;SDS011;17348;50.948;10.696;2022-09-14T11:28:07;7.38;;;4.65;;
30571;SDS011;17348;50.948;10.696;2022-09-14T11:31:17;5.95;;;4.25;;
30571;SDS011;17348;50.948;10.696;2022-09-14T11:34:23;10.65;;;5.45;;
30571;SDS011;17348;50.948;10.696;2022-09-14T11:37:30;14.45;;;5.22;;
30571;SDS011;17348;50.948;10.696;2022-09-14T11:40:39;19.30;;;4.68;;
30571;SDS011;17348;50.948;10.696;2022-09-14T11:43:45;7.38;;;5.00;;
30571;SDS011;17348;50.948;10.696;2022-09-14T11:46:54;6.72;;;4.53;;
30571;SDS011;17348;50.948;10.696;2022-09-14T11:49:58;7.97;;;5.00;;
30571;SDS011;17348;50.948;10.696;2022-09-14T11:53:08;7.70;;;4.97;;
30571;SDS011;17348;50.948;10.696;2022-09-14T11:56:22;7.35;;;5.13;;
30571;SDS011;17348;50.948;10.696;2022-09-14T11:59:33;6.18;;;4.63;;
30571;SDS011;17348;50.948;10.696;2022-09-14T12:06:00;7.13;;;4.80;;
30571;SDS011;17348;50.948;10.696;2022-09-14T12:09:43;6.03;;;4.60;;
30571;SDS011;17348;50.948;10.696;2022-09-14T12:12:46;7.68;;;4.78;;
30571;SDS011;17348;50.948;10.696;2022-09-14T12:15:59;6.55;;;4.50;;
30571;SDS011;17348;50.948;10.696;2022-09-14T12:19:12;5.25;;;3.92;;
30571;SDS011;17348;50.948;10.696;2022-09-14T12:22:18;5.90;;;5.30;;
30571;SDS011;17348;50.948;10.696;2022-09-14T12:25:30;5.35;;;4.50;;
30571;SDS011;17348;50.948;10.696;2022-09-14T12:28:37;11.80;;;6.30;;
30571;SDS011;17348;50.948;10.696;2022-09-14T12:39:09;10.50;;;6.38;;
30571;SDS011;17348;50.948;10.696;2022-09-14T12:42:25;5.88;;;4.78;;
30571;SDS011;17348;50.948;10.696;2022-09-14T12:45:48;5.90;;;4.53;;
30571;SDS011;17348;50.948;10.696;2022-09-14T12:48:54;5.88;;;4.25;;
30571;SDS011;17348;50.948;10.696;2022-09-14T12:52:01;10.25;;;4.75;;
30571;SDS011;17348;50.948;10.696;2022-09-14T12:55:25;7.20;;;4.70;;
30571;SDS011;17348;50.948;10.696;2022-09-14T12:58:47;6.22;;;4.72;;
30571;SDS011;17348;50.948;10.696;2022-09-14T13:02:00;6.65;;;5.10;;
30571;SDS011;17348;50.948;10.696;2022-09-14T13:05:23;6.05;;;4.22;;
30571;SDS011;17348;50.948;10.696;2022-09-14T13:08:29;7.38;;;4.75;;
30571;SDS011;17348;50.948;10.696;2022-09-14T13:11:35;6.28;;;5.07;;
30571;SDS011;17348;50.948;10.696;2022-09-14T13:14:44;7.18;;;4.93;;
30571;SDS011;17348;50.948;10.696;2022-09-14T13:17:55;7.45;;;5.05;;
30571;SDS011;17348;50.948;10.696;2022-09-14T13:21:01;6.47;;;4.63;;
30571;SDS011;17348;50.948;10.696;2022-09-14T13:24:19;7.35;;;4.50;;
30571;SDS011;17348;50.948;10.696;2022-09-14T13:27:25;6.10;;;4.75;;
30571;SDS011;17348;50.948;10.696;2022-09-14T13:30:30;6.00;;;4.55;;
30571;SDS011;17348;50.948;10.696;2022-09-14T13:33:33;7.45;;;5.45;;
30571;SDS011;17348;50.948;10.696;2022-09-14T13:36:39;5.93;;;5.03;;
30571;SDS011;17348;50.948;10.696;2022-09-14T13:39:47;10.77;;;6.45;;
30571;SDS011;17348;50.948;10.696;2022-09-14T13:42:51;9.02;;;6.60;;
30571;SDS011;17348;50.948;10.696;2022-09-14T13:45:54;8.93;;;7.07;;
30571;SDS011;17348;50.948;10.696;2022-09-14T13:48:57;9.40;;;6.38;;
30571;SDS011;17348;50.948;10.696;2022-09-14T13:52:15;9.30;;;6.57;;
30571;SDS011;17348;50.948;10.696;2022-09-14T13:55:22;7.78;;;5.97;;
30571;SDS011;17348;50.948;10.696;2022-09-14T13:58:27;11.00;;;6.55;;
30571;SDS011;17348;50.948;10.696;2022-09-14T14:01:30;8.98;;;7.35;;
30571;SDS011;17348;50.948;10.696;2022-09-14T14:04:33;11.57;;;6.85;;
30571;SDS011;17348;50.948;10.696;2022-09-14T14:07:37;12.45;;;7.10;;
30571;SDS011;17348;50.948;10.696;2022-09-14T14:10:44;11.02;;;6.90;;
30571;SDS011;17348;50.948;10.696;2022-09-14T14:13:49;12.88;;;8.13;;
30571;SDS011;17348;50.948;10.696;2022-09-14T14:20:36;13.00;;;7.53;;
30571;SDS011;17348;50.948;10.696;2022-09-14T14:23:39;11.15;;;7.10;;
30571;SDS011;17348;50.948;10.696;2022-09-14T14:26:47;9.18;;;6.97;;
30571;SDS011;17348;50.948;10.696;2022-09-14T14:29:50;10.38;;;6.35;;
30571;SDS011;17348;50.948;10.696;2022-09-14T14:32:53;9.68;;;5.70;;
30571;SDS011;17348;50.948;10.696;2022-09-14T14:35:56;9.45;;;6.65;;
30571;SDS011;17348;50.948;10.696;2022-09-14T14:38:59;10.05;;;5.80;;
30571;SDS011;17348;50.948;10.696;2022-09-14T14:42:03;12.43;;;6.88;;
30571;SDS011;17348;50.948;10.696;2022-09-14T14:45:07;12.95;;;7.40;;
30571;SDS011;17348;50.948;10.696;2022-09-14T14:48:14;8.90;;;6.57;;
30571;SDS011;17348;50.948;10.696;2022-09-14T14:51:17;12.23;;;6.80;;
30571;SDS011;17348;50.948;10.696;2022-09-14T14:54:21;11.00;;;6.35;;
30571;SDS011;17348;50.948;10.696;2022-09-14T14:57:24;11.77;;;7.20;;
30571;SDS011;17348;50.948;10.696;2022-09-14T15:00:27;11.10;;;7.05;;
30571;SDS011;17348;50.948;10.696;2022-09-14T15:03:32;13.32;;;6.72;;
30571;SDS011;17348;50.948;10.696;2022-09-14T15:06:34;12.63;;;6.45;;
30571;SDS011;17348;50.948;10.696;2022-09-14T15:09:37;11.32;;;7.10;;
30571;SDS011;17348;50.948;10.696;2022-09-14T15:12:41;13.32;;;7.88;;
30571;SDS011;17348;50.948;10.696;2022-09-14T15:15:43;10.48;;;7.28;;
30571;SDS011;17348;50.948;10.696;2022-09-14T15:18:46;13.98;;;8.00;;
30571;SDS011;17348;50.948;10.696;2022-09-14T15:21:48;12.80;;;8.02;;
30571;SDS011;17348;50.948;10.696;2022-09-14T15:24:50;13.80;;;8.05;;
30571;SDS011;17348;50.948;10.696;2022-09-14T15:27:54;16.40;;;8.57;;
30571;SDS011;17348;50.948;10.696;2022-09-14T15:30:56;17.83;;;8.93;;
30571;SDS011;17348;50.948;10.696;2022-09-14T15:33:58;10.95;;;7.95;;
30571;SDS011;17348;50.948;10.696;2022-09-14T15:37:01;13.75;;;8.18;;
30571;SDS011;17348;50.948;10.696;2022-09-14T15:40:03;15.43;;;8.85;;
30571;SDS011;17348;50.948;10.696;2022-09-14T15:43:08;14.70;;;8.35;;
30571;SDS011;17348;50.948;10.696;2022-09-14T15:46:10;12.73;;;8.40;;
30571;SDS011;17348;50.948;10.696;2022-09-14T15:49:13;14.93;;;8.65;;
30571;SDS011;17348;50.948;10.696;2022-09-14T15:52:17;16.65;;;9.63;;
30571;SDS011;17348;50.948;10.696;2022-09-14T15:55:19;16.52;;;9.40;;
30571;SDS011;17348;50.948;10.696;2022-09-14T15:58:23;20.48;;;8.23;;
30571;SDS011;17348;50.948;10.696;2022-09-14T16:01:25;13.38;;;7.47;;
30571;SDS011;17348;50.948;10.696;2022-09-14T16:04:32;12.48;;;7.80;;
30571;SDS011;17348;50.948;10.696;2022-09-14T16:07:36;13.82;;;9.05;;
30571;SDS011;17348;50.948;10.696;2022-09-14T16:10:38;14.02;;;8.75;;
30571;SDS011;17348;50.948;10.696;2022-09-14T16:13:42;10.75;;;7.15;;
30571;SDS011;17348;50.948;10.696;2022-09-14T16:16:44;7.72;;;5.18;;
30571;SDS011;17348;50.948;10.696;2022-09-14T16:19:47;5.75;;;3.80;;
30571;SDS011;17348;50.948;10.696;2022-09-14T16:22:50;3.78;;;2.97;;
30571;SDS011;17348;50.948;10.696;2022-09-14T16:25:52;4.45;;;3.22;;
30571;SDS011;17348;50.948;10.696;2022-09-14T16:28:55;2.92;;;2.50;;
30571;SDS011;17348;50.948;10.696;2022-09-14T16:31:58;4.43;;;3.03;;
30571;SDS011;17348;50.948;10.696;2022-09-14T16:35:01;5.15;;;3.28;;
30571;SDS011;17348;50.948;10.696;2022-09-14T16:38:04;3.67;;;2.97;;
30571;SDS011;17348;50.948;10.696;2022-09-14T16:41:06;4.32;;;3.22;;
30571;SDS011;17348;50.948;10.696;2022-09-14T16:44:11;5.13;;;3.20;;
30571;SDS011;17348;50.948;10.696;2022-09-14T16:47:14;7.75;;;3.47;;
30571;SDS011;17348;50.948;10.696;2022-09-14T16:50:17;5.03;;;3.00;;
30571;SDS011;17348;50.948;10.696;2022-09-14T16:53:19;5.03;;;2.22;;
30571;SDS011;17348;50.948;10.696;2022-09-14T16:56:22;3.65;;;2.30;;
30571;SDS011;17348;50.948;10.696;2022-09-14T16:59:26;4.75;;;2.20;;
30571;SDS011;17348;50.948;10.696;2022-09-14T17:02:29;7.55;;;2.72;;
30571;SDS011;17348;50.948;10.696;2022-09-14T17:05:31;3.00;;;2.10;;
30571;SDS011;17348;50.948;10.696;2022-09-14T17:08:34;3.58;;;1.98;;
30571;SDS011;17348;50.948;10.696;2022-09-14T17:11:37;2.55;;;1.50;;
30571;SDS011;17348;50.948;10.696;2022-09-14T17:14:42;2.20;;;1.58;;
30571;SDS011;17348;50.948;10.696;2022-09-14T17:17:44;2.05;;;1.35;;
30571;SDS011;17348;50.948;10.696;2022-09-14T17:20:52;1.73;;;1.10;;
30571;SDS011;17348;50.948;10.696;2022-09-14T17:23:55;1.15;;;0.82;;
30571;SDS011;17348;50.948;10.696;2022-09-14T17:26:58;3.70;;;1.50;;
30571;SDS011;17348;50.948;10.696;2022-09-14T17:30:01;3.35;;;1.98;;
30571;SDS011;17348;50.948;10.696;2022-09-14T17:33:04;4.10;;;1.83;;
30571;SDS011;17348;50.948;10.696;2022-09-14T17:36:07;3.78;;;1.83;;
30571;SDS011;17348;50.948;10.696;2022-09-14T17:39:10;2.30;;;1.15;;
30571;SDS011;17348;50.948;10.696;2022-09-14T17:42:13;5.60;;;1.45;;
30571;SDS011;17348;50.948;10.696;2022-09-14T17:45:17;4.00;;;1.40;;
30571;SDS011;17348;50.948;10.696;2022-09-14T17:48:19;0.75;;;0.75;;
30571;SDS011;17348;50.948;10.696;2022-09-14T17:51:24;1.08;;;0.90;;
30571;SDS011;17348;50.948;10.696;2022-09-14T17:54:28;3.45;;;1.70;;
30571;SDS011;17348;50.948;10.696;2022-09-14T17:57:30;3.60;;;1.88;;
30571;SDS011;17348;50.948;10.696;2022-09-14T18:00:34;1.33;;;0.98;;
30571;SDS011;17348;50.948;10.696;2022-09-14T18:03:37;1.58;;;1.20;;
30571;SDS011;17348;50.948;10.696;2022-09-14T18:06:41;2.40;;;1.70;;
30571;SDS011;17348;50.948;10.696;2022-09-14T18:09:44;2.05;;;1.30;;
30571;SDS011;17348;50.948;10.696;2022-09-14T18:12:47;1.73;;;1.55;;
30571;SDS011;17348;50.948;10.696;2022-09-14T18:15:55;2.35;;;1.75;;
30571;SDS011;17348;50.948;10.696;2022-09-14T18:18:58;2.28;;;1.70;;
30571;SDS011;17348;50.948;10.696;2022-09-14T18:22:00;2.67;;;1.95;;
30571;SDS011;17348;50.948;10.696;2022-09-14T18:25:03;2.60;;;1.58;;
30571;SDS011;17348;50.948;10.696;2022-09-14T18:28:06;1.52;;;1.13;;
30571;SDS011;17348;50.948;10.696;2022-09-14T18:31:11;2.65;;;1.40;;